createdAt,value
2023-07-09T00:02:01.907Z,4.13
2023-07-09T00:04:30.921Z,3.80
2023-07-09T00:07:03.319Z,4.00
2023-07-09T00:09:32.566Z,3.73
2023-07-09T00:12:01.360Z,3.53
2023-07-09T00:14:31.453Z,4.50
2023-07-09T00:17:00.172Z,4.10
2023-07-09T00:19:30.527Z,3.40
2023-07-09T00:21:59.331Z,3.83
2023-07-09T00:24:28.149Z,4.20
2023-07-09T00:26:57.047Z,4.00
2023-07-09T00:29:25.798Z,4.20
2023-07-09T00:31:56.022Z,3.60
2023-07-09T00:34:26.099Z,3.97
2023-07-09T00:36:54.883Z,3.60
2023-07-09T00:39:24.737Z,4.10
2023-07-09T00:41:53.479Z,4.00
2023-07-09T00:44:30.141Z,3.50
2023-07-09T00:47:22.407Z,3.30
2023-07-09T00:49:51.651Z,4.00
2023-07-09T00:52:25.859Z,3.73
2023-07-09T00:54:55.007Z,3.13
2023-07-09T00:57:25.911Z,3.47
2023-07-09T00:59:58.068Z,3.70
2023-07-09T01:02:30.657Z,3.40
2023-07-09T01:05:02.499Z,3.60
2023-07-09T01:07:32.122Z,3.50
2023-07-09T01:10:01.145Z,3.37
2023-07-09T01:12:31.587Z,3.83
2023-07-09T01:15:01.239Z,3.60
2023-07-09T01:17:31.541Z,3.93
2023-07-09T01:20:00.442Z,3.60
2023-07-09T01:22:31.142Z,3.67
2023-07-09T01:25:03.208Z,3.83
2023-07-09T01:27:34.471Z,3.20
2023-07-09T01:30:07.377Z,3.80
2023-07-09T01:32:36.387Z,4.40
2023-07-09T01:35:09.170Z,3.60
2023-07-09T01:37:39.852Z,3.67
2023-07-09T01:40:24.419Z,3.90
2023-07-09T01:45:53.220Z,3.70
2023-07-09T01:48:24.476Z,3.70
2023-07-09T01:50:53.567Z,3.90
2023-07-09T01:53:25.872Z,4.27
2023-07-09T01:55:55.644Z,3.57
2023-07-09T01:58:25.917Z,4.03
2023-07-09T02:00:57.989Z,3.80
2023-07-09T02:03:27.044Z,2.80
2023-07-09T02:05:56.220Z,3.73
2023-07-09T02:08:26.343Z,3.43
2023-07-09T02:10:55.175Z,4.57
2023-07-09T02:13:23.960Z,3.93
2023-07-09T02:15:52.765Z,4.23
2023-07-09T02:18:21.558Z,4.40
2023-07-09T02:20:50.309Z,3.70
2023-07-09T02:23:24.664Z,4.30
2023-07-09T02:25:58.077Z,3.80
2023-07-09T02:28:26.856Z,3.30
2023-07-09T02:30:55.768Z,3.30
2023-07-09T02:33:24.701Z,4.10
2023-07-09T02:35:53.388Z,4.20
2023-07-09T02:38:22.207Z,3.73
2023-07-09T02:40:50.947Z,4.03
2023-07-09T02:43:21.002Z,3.70
2023-07-09T02:45:49.759Z,4.03
2023-07-09T02:48:21.689Z,4.10
2023-07-09T02:50:50.458Z,3.50
2023-07-09T02:53:19.172Z,4.40
2023-07-09T02:55:47.953Z,3.90
2023-07-09T02:58:17.441Z,4.47
2023-07-09T03:00:53.939Z,4.23
2023-07-09T03:03:23.033Z,4.10
2023-07-09T03:05:52.001Z,4.00
2023-07-09T03:08:20.635Z,3.70
2023-07-09T03:10:49.294Z,3.57
2023-07-09T03:13:17.968Z,4.00
2023-07-09T03:15:57.513Z,4.03
2023-07-09T03:18:26.654Z,3.60
2023-07-09T03:20:55.362Z,3.70
2023-07-09T03:23:24.085Z,4.03
2023-07-09T03:25:52.884Z,4.37
2023-07-09T03:28:21.751Z,4.10
2023-07-09T03:30:51.017Z,3.60
2023-07-09T03:33:21.050Z,3.80
2023-07-09T03:35:49.780Z,3.80
2023-07-09T03:38:18.526Z,4.30
2023-07-09T03:40:47.567Z,4.00
2023-07-09T03:43:16.293Z,4.40
2023-07-09T03:45:46.487Z,3.90
2023-07-09T03:48:17.236Z,4.10
2023-07-09T03:50:48.963Z,3.83
2023-07-09T03:53:19.034Z,4.00
2023-07-09T03:55:49.012Z,3.80
2023-07-09T03:58:20.108Z,4.30
2023-07-09T04:00:49.096Z,3.70
2023-07-09T04:03:18.081Z,4.50
2023-07-09T04:05:50.044Z,4.23
2023-07-09T04:08:18.716Z,3.50
2023-07-09T04:10:47.520Z,3.90
2023-07-09T04:13:16.230Z,4.30
2023-07-09T04:15:46.189Z,4.23
2023-07-09T04:18:14.855Z,3.97
2023-07-09T04:20:43.494Z,4.20
2023-07-09T04:23:17.333Z,4.57
2023-07-09T04:25:46.058Z,4.43
2023-07-09T04:28:14.769Z,4.37
2023-07-09T04:30:49.090Z,3.67
2023-07-09T04:33:20.601Z,4.07
2023-07-09T04:35:50.435Z,4.07
2023-07-09T04:38:20.763Z,3.77
2023-07-09T04:40:49.372Z,4.37
2023-07-09T04:43:18.023Z,3.77
2023-07-09T04:45:46.699Z,3.90
2023-07-09T04:48:15.392Z,4.47
2023-07-09T04:50:44.205Z,3.93
2023-07-09T04:53:13.007Z,3.70
2023-07-09T04:55:43.035Z,3.83
2023-07-09T04:58:11.734Z,3.60
2023-07-09T05:00:40.416Z,4.30
2023-07-09T05:03:09.133Z,3.67
2023-07-09T05:05:37.856Z,4.33
2023-07-09T05:08:06.548Z,4.93
2023-07-09T05:10:35.232Z,4.40
2023-07-09T05:13:05.205Z,3.90
2023-07-09T05:15:36.921Z,4.53
2023-07-09T05:18:05.768Z,4.10
2023-07-09T05:20:34.434Z,3.80
2023-07-09T05:23:03.229Z,4.80
2023-07-09T05:25:32.062Z,4.13
2023-07-09T05:28:00.807Z,3.60
2023-07-09T05:30:30.899Z,3.93
2023-07-09T05:33:00.433Z,4.00
2023-07-09T05:35:29.520Z,4.07
2023-07-09T05:37:58.353Z,3.97
2023-07-09T05:40:27.156Z,4.23
2023-07-09T05:42:55.864Z,4.50
2023-07-09T05:45:24.686Z,4.63
2023-07-09T05:47:54.722Z,5.37
2023-07-09T05:50:23.560Z,4.80
2023-07-09T05:52:52.334Z,4.40
2023-07-09T05:55:24.126Z,4.50
2023-07-09T05:57:52.804Z,4.10
2023-07-09T06:00:21.747Z,4.53
2023-07-09T06:02:50.523Z,4.37
2023-07-09T06:05:21.705Z,5.00
2023-07-09T06:07:50.588Z,4.53
2023-07-09T06:10:19.280Z,4.80
2023-07-09T06:12:47.980Z,4.43
2023-07-09T06:15:16.917Z,4.07
2023-07-09T06:17:45.687Z,4.30
2023-07-09T06:20:14.516Z,4.20
2023-07-09T06:22:44.592Z,4.20
2023-07-09T06:25:14.144Z,4.80
2023-07-09T06:27:42.869Z,4.33
2023-07-09T06:30:12.281Z,4.57
2023-07-09T06:32:41.032Z,4.50
2023-07-09T06:35:15.036Z,4.70
2023-07-09T06:37:45.107Z,4.30
2023-07-09T06:40:14.675Z,4.13
2023-07-09T06:42:43.446Z,4.00
2023-07-09T06:45:12.472Z,4.50
2023-07-09T06:47:41.257Z,4.40
2023-07-09T06:50:10.676Z,3.87
2023-07-09T06:52:39.424Z,4.33
2023-07-09T06:55:10.206Z,4.10
2023-07-09T06:57:39.473Z,3.80
2023-07-09T07:00:09.607Z,3.60
2023-07-09T07:02:43.302Z,4.50
2023-07-09T07:05:12.160Z,4.40
2023-07-09T07:07:40.947Z,4.17
2023-07-09T07:10:11.605Z,5.10
2023-07-09T07:12:48.693Z,3.93
2023-07-09T07:15:19.158Z,4.50
2023-07-09T07:17:48.077Z,4.00
2023-07-09T07:20:17.854Z,4.23
2023-07-09T07:22:46.765Z,4.10
2023-07-09T07:25:17.096Z,3.83
2023-07-09T07:27:45.872Z,3.90
2023-07-09T07:30:15.124Z,4.57
2023-07-09T07:32:46.690Z,4.23
2023-07-09T07:35:16.081Z,4.17
2023-07-09T07:37:45.030Z,4.37
2023-07-09T07:40:14.036Z,4.63
2023-07-09T07:42:44.094Z,4.10
2023-07-09T07:45:12.954Z,4.00
2023-07-09T07:47:42.163Z,4.13
2023-07-09T07:50:11.422Z,3.93
2023-07-09T07:52:40.150Z,3.90
2023-07-09T07:55:12.375Z,3.90
2023-07-09T07:57:45.947Z,3.47
2023-07-09T08:00:15.730Z,3.53
2023-07-09T08:02:44.564Z,3.90
2023-07-09T08:05:13.347Z,4.50
2023-07-09T08:07:42.184Z,4.30
2023-07-09T08:10:11.284Z,3.60
2023-07-09T08:12:40.145Z,4.13
2023-07-09T08:15:11.932Z,4.53
2023-07-09T08:17:40.867Z,4.30
2023-07-09T08:20:10.887Z,4.30
2023-07-09T08:22:41.050Z,3.53
2023-07-09T08:25:10.657Z,4.00
2023-07-09T08:27:39.556Z,3.60
2023-07-09T08:30:11.293Z,3.30
2023-07-09T08:32:40.405Z,4.00
2023-07-09T08:37:43.243Z,4.07
2023-07-09T08:40:14.450Z,4.00
2023-07-09T08:42:59.934Z,3.80
2023-07-09T08:45:40.032Z,4.00
2023-07-09T08:48:11.424Z,4.13
2023-07-09T08:50:42.094Z,3.00
2023-07-09T08:53:16.140Z,3.57
2023-07-09T08:55:45.537Z,3.93
2023-07-09T08:58:17.688Z,3.90
2023-07-09T09:00:55.504Z,3.80
2023-07-09T09:03:32.155Z,4.17
2023-07-09T09:06:00.864Z,4.20
2023-07-09T09:08:38.388Z,3.57
2023-07-09T09:11:15.740Z,4.00
2023-07-09T09:13:49.038Z,3.80
2023-07-09T09:16:27.672Z,3.63
2023-07-09T09:18:58.166Z,3.70
2023-07-09T09:21:31.807Z,3.90
2023-07-09T09:24:11.494Z,3.87
2023-07-09T09:26:41.289Z,3.43
2023-07-09T09:29:14.005Z,3.40
2023-07-09T09:31:46.477Z,4.00
2023-07-09T09:34:22.500Z,4.03
2023-07-09T09:36:56.848Z,3.43
2023-07-09T09:39:26.332Z,3.90
2023-07-09T09:41:57.118Z,3.10
2023-07-09T09:44:28.873Z,3.47
2023-07-09T09:47:01.181Z,3.57
2023-07-09T09:49:30.443Z,3.90
2023-07-09T09:52:04.747Z,3.20
2023-07-09T09:54:33.756Z,3.60
2023-07-09T09:57:02.536Z,3.47
2023-07-09T09:59:34.208Z,2.97
2023-07-09T10:02:17.911Z,3.37
2023-07-09T10:04:47.498Z,3.27
2023-07-09T10:07:23.165Z,3.30
2023-07-09T10:09:54.089Z,4.17
2023-07-09T10:12:42.380Z,3.37
2023-07-09T10:15:22.822Z,3.30
2023-07-09T10:17:58.335Z,3.00
2023-07-09T10:20:33.121Z,2.50
2023-07-09T10:23:05.600Z,2.90
2023-07-09T10:25:40.912Z,3.17
2023-07-09T10:28:29.892Z,3.00
2023-07-09T10:33:44.075Z,3.53
2023-07-09T10:36:23.523Z,3.30
2023-07-09T10:38:56.640Z,3.00
2023-07-09T10:41:27.755Z,3.00
2023-07-09T10:44:01.548Z,3.27
2023-07-09T10:46:34.379Z,2.90
2023-07-09T10:49:07.457Z,2.90
2023-07-09T10:51:40.301Z,3.00
2023-07-09T10:54:19.024Z,2.80
2023-07-09T10:59:44.298Z,3.30
2023-07-09T11:02:21.055Z,2.57
2023-07-09T11:04:54.340Z,3.97
2023-07-09T11:07:28.023Z,3.20
2023-07-09T11:09:58.181Z,3.77
2023-07-09T11:12:31.446Z,2.40
2023-07-09T11:15:04.087Z,2.80
2023-07-09T11:17:34.774Z,2.60
2023-07-09T11:23:20.588Z,2.80
2023-07-09T11:25:50.973Z,3.40
2023-07-09T11:28:35.681Z,3.83
2023-07-09T11:31:08.140Z,3.83
2023-07-09T11:33:47.415Z,4.30
2023-07-09T11:36:27.335Z,4.00
2023-07-09T11:38:56.257Z,3.70
2023-07-09T11:41:30.180Z,4.03
2023-07-09T11:44:07.882Z,4.10
2023-07-09T11:46:41.896Z,3.83
2023-07-09T11:49:11.992Z,4.10
2023-07-09T11:51:45.535Z,4.73
2023-07-09T11:54:14.672Z,4.63
2023-07-09T11:56:43.812Z,4.43
2023-07-09T11:59:13.719Z,3.93
2023-07-09T12:04:38.495Z,4.77
2023-07-09T12:07:08.715Z,4.40
2023-07-09T12:09:42.716Z,4.97
2023-07-09T12:12:20.428Z,4.70
2023-07-09T12:14:49.426Z,4.27
2023-07-09T12:17:18.477Z,4.40
2023-07-09T12:19:47.250Z,4.40
2023-07-09T12:22:22.009Z,4.27
2023-07-09T12:24:52.172Z,3.87
2023-07-09T12:27:23.702Z,4.37
2023-07-09T12:29:54.450Z,3.87
2023-07-09T12:32:24.059Z,4.17
2023-07-09T12:34:54.136Z,3.77
2023-07-09T12:37:24.889Z,4.00
2023-07-09T12:39:54.199Z,4.07
2023-07-09T12:42:27.466Z,4.33
2023-07-09T12:44:56.409Z,3.53
2023-07-09T12:47:26.939Z,3.30
2023-07-09T12:50:03.204Z,4.17
2023-07-09T12:52:33.350Z,4.37
2023-07-09T12:55:04.556Z,3.10
2023-07-09T12:57:34.785Z,3.77
2023-07-09T13:00:03.525Z,4.30
2023-07-09T13:02:32.567Z,4.43
2023-07-09T13:05:03.072Z,3.53
2023-07-09T13:07:36.542Z,3.90
2023-07-09T13:10:17.807Z,3.50
2023-07-09T13:12:48.805Z,4.30
2023-07-09T13:15:40.899Z,3.73
2023-07-09T13:18:12.012Z,3.47
2023-07-09T13:20:43.281Z,3.37
2023-07-09T13:23:14.435Z,3.47
2023-07-09T13:26:08.172Z,3.97
2023-07-09T13:28:37.119Z,3.70
2023-07-09T13:31:13.388Z,6.60
2023-07-09T13:33:42.265Z,3.27
2023-07-09T13:36:11.191Z,3.60
2023-07-09T13:38:42.350Z,3.20
2023-07-09T13:41:16.163Z,3.47
2023-07-09T13:43:47.092Z,3.33
2023-07-09T13:46:16.162Z,3.30
2023-07-09T13:48:47.133Z,3.23
2023-07-09T13:51:18.647Z,3.50
2023-07-09T13:53:49.058Z,3.23
2023-07-09T13:56:17.814Z,3.00
2023-07-09T13:58:46.556Z,3.53
2023-07-09T14:01:17.279Z,3.23
2023-07-09T14:03:46.221Z,3.57
2023-07-09T14:06:20.402Z,3.10
2023-07-09T14:08:50.801Z,3.47
2023-07-09T14:11:19.821Z,3.30
2023-07-09T14:13:48.734Z,3.23
2023-07-09T14:16:17.564Z,2.93
2023-07-09T14:18:46.333Z,3.40
2023-07-09T14:21:16.001Z,3.53
2023-07-09T14:23:44.940Z,3.70
2023-07-09T14:26:15.152Z,3.70
2023-07-09T14:28:43.978Z,3.50
2023-07-09T14:31:21.551Z,3.60
2023-07-09T14:33:50.456Z,3.33
2023-07-09T14:36:19.497Z,3.83
2023-07-09T14:38:48.977Z,3.30
2023-07-09T14:41:24.164Z,3.00
2023-07-09T14:43:53.161Z,3.00
2023-07-09T14:46:27.855Z,5.37
2023-07-09T14:48:56.678Z,3.13
2023-07-09T14:51:25.855Z,3.10
2023-07-09T14:56:48.769Z,3.10
2023-07-09T14:59:18.681Z,3.20
2023-07-09T15:01:47.928Z,2.77
2023-07-09T15:07:26.214Z,3.70
2023-07-09T15:09:55.054Z,3.27
2023-07-09T15:12:28.378Z,3.60
2023-07-09T15:15:04.309Z,3.87
2023-07-09T15:17:33.601Z,3.77
2023-07-09T15:20:02.477Z,3.70
2023-07-09T15:22:34.282Z,2.90
2023-07-09T15:27:58.707Z,2.83
2023-07-09T15:30:29.467Z,3.10
2023-07-09T15:33:05.154Z,3.53
2023-07-09T15:35:37.926Z,3.40
2023-07-09T15:38:22.175Z,5.70
2023-07-09T15:40:51.229Z,2.93
2023-07-09T15:43:21.501Z,4.27
2023-07-09T15:45:52.831Z,4.00
2023-07-09T15:48:24.696Z,4.30
2023-07-09T15:50:53.811Z,5.77
2023-07-09T15:53:23.204Z,3.50
2023-07-09T15:55:55.844Z,3.90
2023-07-09T15:58:29.121Z,4.03
2023-07-09T16:00:57.865Z,3.60
2023-07-09T16:03:26.720Z,3.00
2023-07-09T16:05:55.517Z,3.20
2023-07-09T16:08:24.330Z,3.13
2023-07-09T16:10:53.058Z,2.80
2023-07-09T16:13:23.685Z,3.10
2023-07-09T16:15:53.921Z,3.80
2023-07-09T16:18:22.993Z,4.50
2023-07-09T16:20:52.103Z,9.70
2023-07-09T16:23:24.154Z,4.80
2023-07-09T16:25:53.284Z,3.50
2023-07-09T16:28:22.513Z,3.43
2023-07-09T16:30:52.289Z,3.03
2023-07-09T16:33:22.833Z,2.63
2023-07-09T16:35:53.464Z,3.10
2023-07-09T16:38:22.186Z,3.20
2023-07-09T16:40:50.904Z,2.70
2023-07-09T16:43:22.584Z,3.30
2023-07-09T16:45:51.662Z,2.83
2023-07-09T16:48:24.103Z,2.93
2023-07-09T16:50:56.078Z,3.27
2023-07-09T16:53:25.125Z,3.60
2023-07-09T16:55:53.905Z,3.40
2023-07-09T16:58:30.479Z,4.13
2023-07-09T17:00:59.593Z,4.20
2023-07-09T17:03:30.987Z,3.50
2023-07-09T17:05:59.892Z,3.80
2023-07-09T17:08:28.917Z,3.17
2023-07-09T17:10:59.378Z,3.57
2023-07-09T17:13:29.381Z,4.30
2023-07-09T17:15:58.328Z,5.43
2023-07-09T17:18:30.335Z,5.03
2023-07-09T17:21:04.020Z,4.10
2023-07-09T17:23:33.679Z,5.60
2023-07-09T17:26:02.633Z,3.63
2023-07-09T17:28:32.936Z,3.53
2023-07-09T17:31:02.556Z,3.37
2023-07-09T17:33:32.793Z,3.70
2023-07-09T17:36:01.717Z,3.80
2023-07-09T17:38:35.292Z,3.50
2023-07-09T17:41:04.408Z,3.80
2023-07-09T17:43:33.287Z,3.10
2023-07-09T17:46:03.275Z,4.93
2023-07-09T17:48:37.295Z,3.60
2023-07-09T17:51:06.824Z,3.00
2023-07-09T17:53:37.130Z,2.93
2023-07-09T17:56:18.730Z,3.50
2023-07-09T17:58:48.971Z,3.27
2023-07-09T18:01:17.940Z,4.60
2023-07-09T18:03:48.313Z,4.10
2023-07-09T18:06:18.221Z,3.20
2023-07-09T18:08:47.029Z,3.10
2023-07-09T18:11:29.113Z,3.07
2023-07-09T18:14:01.550Z,3.40
2023-07-09T18:16:30.812Z,3.50
2023-07-09T18:19:04.632Z,3.30
2023-07-09T18:21:33.429Z,3.90
2023-07-09T18:24:05.479Z,4.57
2023-07-09T18:26:34.313Z,3.90
2023-07-09T18:29:08.225Z,3.60
2023-07-09T18:31:37.436Z,4.37
2023-07-09T18:34:10.699Z,7.07
2023-07-09T18:36:39.660Z,4.00
2023-07-09T18:39:09.047Z,4.40
2023-07-09T18:41:37.898Z,4.50
2023-07-09T18:44:20.404Z,3.67
2023-07-09T18:46:56.189Z,3.80
2023-07-09T18:49:26.505Z,4.30
2023-07-09T18:51:55.336Z,3.90
2023-07-09T18:54:24.248Z,3.90
2023-07-09T18:56:53.575Z,4.23
2023-07-09T18:59:23.809Z,3.73
2023-07-09T19:01:52.870Z,4.43
2023-07-09T19:04:23.403Z,3.90
2023-07-09T19:06:55.269Z,4.17
2023-07-09T19:09:26.218Z,4.10
2023-07-09T19:11:55.045Z,5.03
2023-07-09T19:14:24.535Z,5.40
2023-07-09T19:16:57.012Z,6.83
2023-07-09T19:19:26.428Z,5.40
2023-07-09T19:21:58.006Z,4.67
2023-07-09T19:24:28.616Z,4.67
2023-07-09T19:26:58.348Z,4.50
2023-07-09T19:29:28.534Z,4.67
2023-07-09T19:31:59.659Z,4.20
2023-07-09T19:34:30.161Z,4.20
2023-07-09T19:37:02.302Z,5.40
2023-07-09T19:39:33.182Z,4.70
2023-07-09T19:42:07.687Z,4.77
2023-07-09T19:44:36.465Z,4.93
2023-07-09T19:47:06.436Z,5.20
2023-07-09T19:49:35.314Z,5.87
2023-07-09T19:52:11.868Z,5.00
2023-07-09T19:54:40.786Z,5.30
2023-07-09T19:57:09.521Z,4.33
2023-07-09T19:59:39.005Z,5.10
2023-07-09T20:02:20.073Z,5.17
2023-07-09T20:04:51.002Z,5.47
2023-07-09T20:07:21.145Z,4.80
2023-07-09T20:09:49.914Z,4.67
2023-07-09T20:12:21.599Z,5.20
2023-07-09T20:14:54.869Z,7.07
2023-07-09T20:17:23.662Z,4.47
2023-07-09T20:19:52.424Z,5.13
2023-07-09T20:22:24.875Z,4.90
2023-07-09T20:24:53.656Z,4.83
2023-07-09T20:27:23.857Z,5.40
2023-07-09T20:29:52.698Z,5.00
2023-07-09T20:32:22.687Z,6.23
2023-07-09T20:34:55.253Z,5.37
2023-07-09T20:37:26.440Z,4.97
2023-07-09T20:39:55.261Z,4.67
2023-07-09T20:42:25.036Z,5.30
2023-07-09T20:44:56.106Z,5.07
2023-07-09T20:47:25.018Z,4.55
2023-07-09T20:49:53.880Z,4.57
2023-07-09T20:52:25.960Z,9.73
2023-07-09T20:54:56.081Z,9.03
2023-07-09T20:57:24.792Z,5.30
2023-07-09T20:59:53.547Z,4.80
2023-07-09T21:02:23.699Z,5.10
2023-07-09T21:04:55.188Z,4.80
2023-07-09T21:07:24.500Z,4.60
2023-07-09T21:09:53.730Z,4.90
2023-07-09T21:12:23.899Z,4.57
2023-07-09T21:14:52.765Z,5.13
2023-07-09T21:17:24.171Z,4.77
2023-07-09T21:19:53.490Z,4.90
2023-07-09T21:22:24.203Z,5.80
2023-07-09T21:24:55.471Z,4.83
2023-07-09T21:27:25.586Z,4.63
2023-07-09T21:29:54.334Z,5.10
2023-07-09T21:32:29.559Z,5.47
2023-07-09T21:35:00.075Z,5.97
2023-07-09T21:37:28.949Z,5.30
2023-07-09T21:39:57.776Z,5.70
2023-07-09T21:42:28.202Z,5.00
2023-07-09T21:44:56.923Z,5.37
2023-07-09T21:47:27.439Z,4.27
2023-07-09T21:49:56.202Z,4.87
2023-07-09T21:52:30.405Z,5.63
2023-07-09T21:57:32.033Z,5.63
2023-07-09T22:00:03.196Z,5.10
2023-07-09T22:02:32.627Z,5.97
2023-07-09T22:05:01.476Z,5.43
2023-07-09T22:07:32.135Z,5.13
2023-07-09T22:10:00.870Z,4.90
2023-07-09T22:12:30.312Z,5.23
2023-07-09T22:15:07.697Z,4.83
2023-07-09T22:17:36.888Z,5.20
2023-07-09T22:20:08.207Z,5.10
2023-07-09T22:22:37.394Z,5.23
2023-07-09T22:25:10.903Z,5.67
2023-07-09T22:27:39.719Z,5.30
2023-07-09T22:30:11.021Z,5.20
2023-07-09T22:32:40.048Z,5.50
2023-07-09T22:35:13.597Z,5.00
2023-07-09T22:37:43.396Z,5.50
2023-07-09T22:40:21.154Z,5.70
2023-07-09T22:42:51.002Z,5.33
2023-07-09T22:45:22.353Z,5.67
2023-07-09T22:47:54.659Z,5.97
2023-07-09T22:50:28.029Z,5.00
2023-07-09T22:52:56.993Z,5.50
2023-07-09T22:55:44.933Z,5.20
2023-07-09T22:58:15.134Z,5.50
2023-07-09T23:00:48.009Z,4.53
2023-07-09T23:03:18.597Z,5.00
2023-07-09T23:08:41.638Z,5.77
2023-07-09T23:11:14.278Z,4.60
2023-07-09T23:13:43.162Z,5.40
2023-07-09T23:16:14.655Z,5.77
2023-07-09T23:18:45.614Z,4.90
2023-07-09T23:21:14.572Z,4.70
2023-07-09T23:23:43.379Z,5.40
2023-07-09T23:26:13.136Z,5.00
2023-07-09T23:28:42.705Z,5.40
2023-07-09T23:31:25.543Z,4.80
2023-07-09T23:33:54.781Z,5.40
2023-07-09T23:36:23.690Z,5.10
2023-07-09T23:38:52.453Z,5.50
2023-07-09T23:41:27.702Z,5.60
2023-07-09T23:43:58.136Z,5.97
2023-07-09T23:46:31.035Z,5.40
2023-07-09T23:49:09.228Z,5.33
2023-07-09T23:51:39.533Z,5.13
2023-07-09T23:54:10.216Z,5.27
2023-07-09T23:56:39.042Z,5.10
2023-07-09T23:59:08.179Z,5.37
